sensor_id;sensor_type;location;lat;lon;timestamp;temperature;humidity
79187;SHT31;68762;51.980;5.646;2023-12-20T00:00:13;9.0;74.9
79187;SHT31;68762;51.980;5.646;2023-12-20T00:02:42;9.0;74.8
79187;SHT31;68762;51.980;5.646;2023-12-20T00:05:13;8.9;74.8
79187;SHT31;68762;51.980;5.646;2023-12-20T00:07:42;8.9;74.9
79187;SHT31;68762;51.980;5.646;2023-12-20T00:10:11;8.9;74.9
79187;SHT31;68762;51.980;5.646;2023-12-20T00:12:39;8.9;74.7
79187;SHT31;68762;51.980;5.646;2023-12-20T00:15:09;8.9;74.5
79187;SHT31;68762;51.980;5.646;2023-12-20T00:17:37;8.9;74.4
79187;SHT31;68762;51.980;5.646;2023-12-20T00:20:07;8.9;74.3
79187;SHT31;68762;51.980;5.646;2023-12-20T00:22:37;8.9;74.3
79187;SHT31;68762;51.980;5.646;2023-12-20T00:25:07;8.9;74.1
79187;SHT31;68762;51.980;5.646;2023-12-20T00:27:35;8.9;74.1
79187;SHT31;68762;51.980;5.646;2023-12-20T00:30:04;8.9;74.0
79187;SHT31;68762;51.980;5.646;2023-12-20T00:32:34;8.8;74.0
79187;SHT31;68762;51.980;5.646;2023-12-20T00:35:03;8.8;74.0
79187;SHT31;68762;51.980;5.646;2023-12-20T00:37:32;8.8;73.8
79187;SHT31;68762;51.980;5.646;2023-12-20T00:40:00;8.8;73.7
79187;SHT31;68762;51.980;5.646;2023-12-20T00:42:31;8.7;73.6
79187;SHT31;68762;51.980;5.646;2023-12-20T00:45:00;8.7;73.4
79187;SHT31;68762;51.980;5.646;2023-12-20T00:47:29;8.7;73.3
79187;SHT31;68762;51.980;5.646;2023-12-20T00:49:57;8.7;73.3
79187;SHT31;68762;51.980;5.646;2023-12-20T00:52:28;8.6;73.2
79187;SHT31;68762;51.980;5.646;2023-12-20T00:54:56;8.6;72.9
79187;SHT31;68762;51.980;5.646;2023-12-20T00:57:25;8.6;73.1
79187;SHT31;68762;51.980;5.646;2023-12-20T00:59:54;8.5;73.2
79187;SHT31;68762;51.980;5.646;2023-12-20T01:02:22;8.5;73.1
79187;SHT31;68762;51.980;5.646;2023-12-20T01:04:51;8.5;73.2
79187;SHT31;68762;51.980;5.646;2023-12-20T01:07:19;8.4;73.2
79187;SHT31;68762;51.980;5.646;2023-12-20T01:09:48;8.4;73.2
79187;SHT31;68762;51.980;5.646;2023-12-20T01:12:16;8.4;73.3
79187;SHT31;68762;51.980;5.646;2023-12-20T01:14:46;8.4;73.3
79187;SHT31;68762;51.980;5.646;2023-12-20T01:17:15;8.3;73.4
79187;SHT31;68762;51.980;5.646;2023-12-20T01:19:45;8.3;73.6
79187;SHT31;68762;51.980;5.646;2023-12-20T01:22:14;8.3;73.8
79187;SHT31;68762;51.980;5.646;2023-12-20T01:24:42;8.3;73.6
79187;SHT31;68762;51.980;5.646;2023-12-20T01:27:11;8.2;73.7
79187;SHT31;68762;51.980;5.646;2023-12-20T01:29:40;8.2;73.7
79187;SHT31;68762;51.980;5.646;2023-12-20T01:32:10;8.2;73.7
79187;SHT31;68762;51.980;5.646;2023-12-20T01:34:39;8.2;73.8
79187;SHT31;68762;51.980;5.646;2023-12-20T01:37:07;8.2;73.8
79187;SHT31;68762;51.980;5.646;2023-12-20T01:39:36;8.1;73.9
79187;SHT31;68762;51.980;5.646;2023-12-20T01:42:05;8.1;74.0
79187;SHT31;68762;51.980;5.646;2023-12-20T01:44:35;8.1;74.2
79187;SHT31;68762;51.980;5.646;2023-12-20T01:47:04;8.1;74.2
79187;SHT31;68762;51.980;5.646;2023-12-20T01:49:35;8.1;74.3
79187;SHT31;68762;51.980;5.646;2023-12-20T01:52:04;8.1;74.3
79187;SHT31;68762;51.980;5.646;2023-12-20T01:54:34;8.1;74.5
79187;SHT31;68762;51.980;5.646;2023-12-20T01:57:04;8.1;74.7
79187;SHT31;68762;51.980;5.646;2023-12-20T01:59:34;8.1;74.8
79187;SHT31;68762;51.980;5.646;2023-12-20T02:02:04;8.1;74.9
79187;SHT31;68762;51.980;5.646;2023-12-20T02:04:34;8.1;75.1
79187;SHT31;68762;51.980;5.646;2023-12-20T02:07:02;8.1;75.2
79187;SHT31;68762;51.980;5.646;2023-12-20T02:09:32;8.1;75.5
79187;SHT31;68762;51.980;5.646;2023-12-20T02:12:00;8.1;75.5
79187;SHT31;68762;51.980;5.646;2023-12-20T02:14:29;8.1;75.4
79187;SHT31;68762;51.980;5.646;2023-12-20T02:16:58;8.2;75.2
79187;SHT31;68762;51.980;5.646;2023-12-20T02:19:26;8.2;75.2
79187;SHT31;68762;51.980;5.646;2023-12-20T02:22:06;8.2;74.9
79187;SHT31;68762;51.980;5.646;2023-12-20T02:24:35;8.2;74.9
79187;SHT31;68762;51.980;5.646;2023-12-20T02:27:06;8.2;75.0
79187;SHT31;68762;51.980;5.646;2023-12-20T02:29:35;8.3;75.1
79187;SHT31;68762;51.980;5.646;2023-12-20T02:32:04;8.3;75.1
79187;SHT31;68762;51.980;5.646;2023-12-20T02:34:32;8.3;74.8
79187;SHT31;68762;51.980;5.646;2023-12-20T02:37:01;8.3;74.8
79187;SHT31;68762;51.980;5.646;2023-12-20T02:39:30;8.3;74.9
79187;SHT31;68762;51.980;5.646;2023-12-20T02:41:59;8.4;75.0
79187;SHT31;68762;51.980;5.646;2023-12-20T02:44:28;8.4;75.1
79187;SHT31;68762;51.980;5.646;2023-12-20T02:46:56;8.4;74.9
79187;SHT31;68762;51.980;5.646;2023-12-20T02:49:25;8.4;75.0
79187;SHT31;68762;51.980;5.646;2023-12-20T02:51:53;8.4;74.8
79187;SHT31;68762;51.980;5.646;2023-12-20T02:54:22;8.4;74.6
79187;SHT31;68762;51.980;5.646;2023-12-20T02:56:50;8.4;74.3
79187;SHT31;68762;51.980;5.646;2023-12-20T02:59:19;8.4;74.1
79187;SHT31;68762;51.980;5.646;2023-12-20T03:01:47;8.4;74.0
79187;SHT31;68762;51.980;5.646;2023-12-20T03:04:16;8.4;73.9
79187;SHT31;68762;51.980;5.646;2023-12-20T03:06:46;8.4;73.9
79187;SHT31;68762;51.980;5.646;2023-12-20T03:09:15;8.3;74.1
79187;SHT31;68762;51.980;5.646;2023-12-20T03:11:44;8.3;74.2
79187;SHT31;68762;51.980;5.646;2023-12-20T03:14:12;8.3;74.3
79187;SHT31;68762;51.980;5.646;2023-12-20T03:16:42;8.3;74.7
79187;SHT31;68762;51.980;5.646;2023-12-20T03:19:15;8.3;75.0
79187;SHT31;68762;51.980;5.646;2023-12-20T03:21:43;8.3;75.0
79187;SHT31;68762;51.980;5.646;2023-12-20T03:24:12;8.3;75.0
79187;SHT31;68762;51.980;5.646;2023-12-20T03:26:40;8.3;74.8
79187;SHT31;68762;51.980;5.646;2023-12-20T03:29:09;8.3;74.8
79187;SHT31;68762;51.980;5.646;2023-12-20T03:31:37;8.4;74.9
79187;SHT31;68762;51.980;5.646;2023-12-20T03:34:06;8.4;74.9
79187;SHT31;68762;51.980;5.646;2023-12-20T03:36:35;8.4;74.9
79187;SHT31;68762;51.980;5.646;2023-12-20T03:39:03;8.4;74.7
79187;SHT31;68762;51.980;5.646;2023-12-20T03:41:32;8.4;74.7
79187;SHT31;68762;51.980;5.646;2023-12-20T03:44:00;8.4;74.7
79187;SHT31;68762;51.980;5.646;2023-12-20T03:46:29;8.4;74.7
79187;SHT31;68762;51.980;5.646;2023-12-20T03:48:58;8.4;74.7
79187;SHT31;68762;51.980;5.646;2023-12-20T03:51:26;8.4;74.6
79187;SHT31;68762;51.980;5.646;2023-12-20T03:53:55;8.4;74.6
79187;SHT31;68762;51.980;5.646;2023-12-20T03:56:23;8.4;74.6
79187;SHT31;68762;51.980;5.646;2023-12-20T03:58:52;8.4;74.7
79187;SHT31;68762;51.980;5.646;2023-12-20T04:01:20;8.5;74.5
79187;SHT31;68762;51.980;5.646;2023-12-20T04:03:49;8.5;74.4
79187;SHT31;68762;51.980;5.646;2023-12-20T04:06:18;8.5;74.2
79187;SHT31;68762;51.980;5.646;2023-12-20T04:08:47;8.5;74.2
79187;SHT31;68762;51.980;5.646;2023-12-20T04:11:15;8.5;74.1
79187;SHT31;68762;51.980;5.646;2023-12-20T04:13:44;8.5;74.4
79187;SHT31;68762;51.980;5.646;2023-12-20T04:16:13;8.5;74.4
79187;SHT31;68762;51.980;5.646;2023-12-20T04:18:41;8.5;74.4
79187;SHT31;68762;51.980;5.646;2023-12-20T04:21:10;8.6;74.4
79187;SHT31;68762;51.980;5.646;2023-12-20T04:23:38;8.6;74.1
79187;SHT31;68762;51.980;5.646;2023-12-20T04:26:07;8.6;74.0
79187;SHT31;68762;51.980;5.646;2023-12-20T04:28:35;8.6;74.1
79187;SHT31;68762;51.980;5.646;2023-12-20T04:31:04;8.6;74.2
79187;SHT31;68762;51.980;5.646;2023-12-20T04:33:32;8.6;74.3
79187;SHT31;68762;51.980;5.646;2023-12-20T04:36:00;8.7;74.3
79187;SHT31;68762;51.980;5.646;2023-12-20T04:38:29;8.7;74.3
79187;SHT31;68762;51.980;5.646;2023-12-20T04:40:58;8.7;74.2
79187;SHT31;68762;51.980;5.646;2023-12-20T04:43:28;8.7;74.1
79187;SHT31;68762;51.980;5.646;2023-12-20T04:45:57;8.8;74.1
79187;SHT31;68762;51.980;5.646;2023-12-20T04:48:25;8.8;73.9
79187;SHT31;68762;51.980;5.646;2023-12-20T04:50:54;8.8;73.8
79187;SHT31;68762;51.980;5.646;2023-12-20T04:53:22;8.8;73.8
79187;SHT31;68762;51.980;5.646;2023-12-20T04:55:52;8.9;73.7
79187;SHT31;68762;51.980;5.646;2023-12-20T04:58:20;8.9;73.2
79187;SHT31;68762;51.980;5.646;2023-12-20T05:00:49;8.9;73.4
79187;SHT31;68762;51.980;5.646;2023-12-20T05:03:17;9.0;73.1
79187;SHT31;68762;51.980;5.646;2023-12-20T05:05:46;9.0;72.8
79187;SHT31;68762;51.980;5.646;2023-12-20T05:08:15;9.0;72.7
79187;SHT31;68762;51.980;5.646;2023-12-20T05:10:44;9.0;72.4
79187;SHT31;68762;51.980;5.646;2023-12-20T05:13:12;9.1;72.1
79187;SHT31;68762;51.980;5.646;2023-12-20T05:15:42;9.1;72.1
79187;SHT31;68762;51.980;5.646;2023-12-20T05:18:10;9.1;72.1
79187;SHT31;68762;51.980;5.646;2023-12-20T05:20:39;9.1;71.9
79187;SHT31;68762;51.980;5.646;2023-12-20T05:23:08;9.2;71.8
79187;SHT31;68762;51.980;5.646;2023-12-20T05:25:38;9.2;71.6
79187;SHT31;68762;51.980;5.646;2023-12-20T05:28:06;9.2;71.9
79187;SHT31;68762;51.980;5.646;2023-12-20T05:30:35;9.3;71.9
79187;SHT31;68762;51.980;5.646;2023-12-20T05:33:03;9.3;71.6
79187;SHT31;68762;51.980;5.646;2023-12-20T05:35:32;9.3;71.1
79187;SHT31;68762;51.980;5.646;2023-12-20T05:38:01;9.3;71.2
79187;SHT31;68762;51.980;5.646;2023-12-20T05:40:30;9.4;71.3
79187;SHT31;68762;51.980;5.646;2023-12-20T05:42:58;9.4;71.1
79187;SHT31;68762;51.980;5.646;2023-12-20T05:45:27;9.5;70.9
79187;SHT31;68762;51.980;5.646;2023-12-20T05:47:56;9.6;70.7
79187;SHT31;68762;51.980;5.646;2023-12-20T05:50:27;9.6;70.3
79187;SHT31;68762;51.980;5.646;2023-12-20T05:52:55;9.6;69.9
79187;SHT31;68762;51.980;5.646;2023-12-20T05:55:24;9.7;69.7
79187;SHT31;68762;51.980;5.646;2023-12-20T05:57:52;9.7;69.8
79187;SHT31;68762;51.980;5.646;2023-12-20T06:00:21;9.7;69.6
79187;SHT31;68762;51.980;5.646;2023-12-20T06:02:49;9.7;69.8
79187;SHT31;68762;51.980;5.646;2023-12-20T06:05:18;9.7;69.5
79187;SHT31;68762;51.980;5.646;2023-12-20T06:07:47;9.7;69.5
79187;SHT31;68762;51.980;5.646;2023-12-20T06:10:17;9.7;69.5
79187;SHT31;68762;51.980;5.646;2023-12-20T06:12:45;9.7;69.5
79187;SHT31;68762;51.980;5.646;2023-12-20T06:15:16;9.7;69.4
79187;SHT31;68762;51.980;5.646;2023-12-20T06:17:45;9.7;69.4
79187;SHT31;68762;51.980;5.646;2023-12-20T06:20:13;9.7;69.4
79187;SHT31;68762;51.980;5.646;2023-12-20T06:22:42;9.7;69.4
79187;SHT31;68762;51.980;5.646;2023-12-20T06:25:10;9.7;69.2
79187;SHT31;68762;51.980;5.646;2023-12-20T06:27:39;9.7;69.6
79187;SHT31;68762;51.980;5.646;2023-12-20T06:30:08;9.6;69.5
79187;SHT31;68762;51.980;5.646;2023-12-20T06:32:37;9.6;69.4
79187;SHT31;68762;51.980;5.646;2023-12-20T06:35:06;9.6;69.5
79187;SHT31;68762;51.980;5.646;2023-12-20T06:37:35;9.6;69.5
79187;SHT31;68762;51.980;5.646;2023-12-20T06:40:04;9.6;69.3
79187;SHT31;68762;51.980;5.646;2023-12-20T06:42:33;9.6;69.1
79187;SHT31;68762;51.980;5.646;2023-12-20T06:45:02;9.6;69.4
79187;SHT31;68762;51.980;5.646;2023-12-20T06:47:30;9.6;69.6
79187;SHT31;68762;51.980;5.646;2023-12-20T06:49:59;9.6;69.4
79187;SHT31;68762;51.980;5.646;2023-12-20T06:52:28;9.6;69.6
79187;SHT31;68762;51.980;5.646;2023-12-20T06:54:58;9.6;69.6
79187;SHT31;68762;51.980;5.646;2023-12-20T06:57:27;9.6;69.6
79187;SHT31;68762;51.980;5.646;2023-12-20T06:59:55;9.6;69.5
79187;SHT31;68762;51.980;5.646;2023-12-20T07:02:24;9.6;69.7
79187;SHT31;68762;51.980;5.646;2023-12-20T07:04:56;9.6;69.2
79187;SHT31;68762;51.980;5.646;2023-12-20T07:07:24;9.6;69.4
79187;SHT31;68762;51.980;5.646;2023-12-20T07:09:53;9.6;69.7
79187;SHT31;68762;51.980;5.646;2023-12-20T07:12:21;9.6;69.6
79187;SHT31;68762;51.980;5.646;2023-12-20T07:14:50;9.6;69.6
79187;SHT31;68762;51.980;5.646;2023-12-20T07:17:18;9.6;69.9
79187;SHT31;68762;51.980;5.646;2023-12-20T07:19:48;9.6;70.0
79187;SHT31;68762;51.980;5.646;2023-12-20T07:22:16;9.6;69.8
79187;SHT31;68762;51.980;5.646;2023-12-20T07:24:45;9.6;69.8
79187;SHT31;68762;51.980;5.646;2023-12-20T07:27:14;9.6;69.5
79187;SHT31;68762;51.980;5.646;2023-12-20T07:29:43;9.7;69.4
79187;SHT31;68762;51.980;5.646;2023-12-20T07:32:11;9.7;69.6
79187;SHT31;68762;51.980;5.646;2023-12-20T07:34:40;9.7;69.8
79187;SHT31;68762;51.980;5.646;2023-12-20T07:37:08;9.7;69.9
79187;SHT31;68762;51.980;5.646;2023-12-20T07:39:39;9.7;69.9
79187;SHT31;68762;51.980;5.646;2023-12-20T07:42:08;9.7;70.1
79187;SHT31;68762;51.980;5.646;2023-12-20T07:44:39;9.7;69.9
79187;SHT31;68762;51.980;5.646;2023-12-20T07:47:08;9.7;70.0
79187;SHT31;68762;51.980;5.646;2023-12-20T07:49:40;9.7;70.1
79187;SHT31;68762;51.980;5.646;2023-12-20T07:52:09;9.7;69.9
79187;SHT31;68762;51.980;5.646;2023-12-20T07:54:37;9.7;70.1
79187;SHT31;68762;51.980;5.646;2023-12-20T07:57:08;9.7;70.1
79187;SHT31;68762;51.980;5.646;2023-12-20T07:59:37;9.7;69.9
79187;SHT31;68762;51.980;5.646;2023-12-20T08:02:05;9.7;69.9
79187;SHT31;68762;51.980;5.646;2023-12-20T08:04:35;9.8;69.6
79187;SHT31;68762;51.980;5.646;2023-12-20T08:07:03;9.8;69.7
79187;SHT31;68762;51.980;5.646;2023-12-20T08:09:32;9.8;69.8
79187;SHT31;68762;51.980;5.646;2023-12-20T08:12:03;9.8;69.4
79187;SHT31;68762;51.980;5.646;2023-12-20T08:14:32;9.8;69.6
79187;SHT31;68762;51.980;5.646;2023-12-20T08:17:00;9.8;69.5
79187;SHT31;68762;51.980;5.646;2023-12-20T08:19:29;9.8;69.7
79187;SHT31;68762;51.980;5.646;2023-12-20T08:21:57;9.8;69.4
79187;SHT31;68762;51.980;5.646;2023-12-20T08:24:26;9.9;69.7
79187;SHT31;68762;51.980;5.646;2023-12-20T08:26:54;9.9;69.7
79187;SHT31;68762;51.980;5.646;2023-12-20T08:29:23;9.9;69.6
79187;SHT31;68762;51.980;5.646;2023-12-20T08:31:54;9.9;69.7
79187;SHT31;68762;51.980;5.646;2023-12-20T08:34:23;9.9;69.4
79187;SHT31;68762;51.980;5.646;2023-12-20T08:36:52;9.9;69.4
79187;SHT31;68762;51.980;5.646;2023-12-20T08:39:22;9.9;69.2
79187;SHT31;68762;51.980;5.646;2023-12-20T08:41:51;9.9;69.2
79187;SHT31;68762;51.980;5.646;2023-12-20T08:44:19;10.0;69.1
79187;SHT31;68762;51.980;5.646;2023-12-20T08:46:49;10.0;69.3
79187;SHT31;68762;51.980;5.646;2023-12-20T08:49:17;10.0;69.4
79187;SHT31;68762;51.980;5.646;2023-12-20T08:51:46;10.0;69.6
79187;SHT31;68762;51.980;5.646;2023-12-20T08:54:15;10.0;69.5
79187;SHT31;68762;51.980;5.646;2023-12-20T08:56:43;10.0;69.6
79187;SHT31;68762;51.980;5.646;2023-12-20T08:59:12;10.0;69.5
79187;SHT31;68762;51.980;5.646;2023-12-20T09:01:41;10.0;69.2
79187;SHT31;68762;51.980;5.646;2023-12-20T09:04:09;10.0;69.4
79187;SHT31;68762;51.980;5.646;2023-12-20T09:06:38;10.0;69.9
79187;SHT31;68762;51.980;5.646;2023-12-20T09:09:08;10.0;70.1
79187;SHT31;68762;51.980;5.646;2023-12-20T09:11:40;10.0;70.5
79187;SHT31;68762;51.980;5.646;2023-12-20T09:14:09;10.0;70.7
79187;SHT31;68762;51.980;5.646;2023-12-20T09:16:38;9.9;71.0
79187;SHT31;68762;51.980;5.646;2023-12-20T09:19:06;9.9;71.3
79187;SHT31;68762;51.980;5.646;2023-12-20T09:21:35;9.9;71.7
79187;SHT31;68762;51.980;5.646;2023-12-20T09:24:03;9.9;71.7
79187;SHT31;68762;51.980;5.646;2023-12-20T09:26:34;9.8;71.9
79187;SHT31;68762;51.980;5.646;2023-12-20T09:29:03;9.8;71.8
79187;SHT31;68762;51.980;5.646;2023-12-20T09:31:36;9.8;72.0
79187;SHT31;68762;51.980;5.646;2023-12-20T09:34:05;9.8;72.3
79187;SHT31;68762;51.980;5.646;2023-12-20T09:36:34;9.8;72.4
79187;SHT31;68762;51.980;5.646;2023-12-20T09:39:03;9.7;72.3
79187;SHT31;68762;51.980;5.646;2023-12-20T09:41:42;9.7;72.8
79187;SHT31;68762;51.980;5.646;2023-12-20T09:44:14;9.7;72.6
79187;SHT31;68762;51.980;5.646;2023-12-20T09:46:45;9.7;73.0
79187;SHT31;68762;51.980;5.646;2023-12-20T09:49:18;9.7;72.5
79187;SHT31;68762;51.980;5.646;2023-12-20T09:51:50;9.7;72.7
79187;SHT31;68762;51.980;5.646;2023-12-20T09:54:21;9.7;72.9
79187;SHT31;68762;51.980;5.646;2023-12-20T09:56:50;9.8;72.8
79187;SHT31;68762;51.980;5.646;2023-12-20T09:59:19;9.8;72.9
79187;SHT31;68762;51.980;5.646;2023-12-20T10:01:51;9.8;72.9
79187;SHT31;68762;51.980;5.646;2023-12-20T10:04:23;9.8;72.4
79187;SHT31;68762;51.980;5.646;2023-12-20T10:06:54;9.8;72.3
79187;SHT31;68762;51.980;5.646;2023-12-20T10:09:24;9.9;72.6
79187;SHT31;68762;51.980;5.646;2023-12-20T10:11:54;9.9;72.3
79187;SHT31;68762;51.980;5.646;2023-12-20T10:14:25;9.9;72.2
79187;SHT31;68762;51.980;5.646;2023-12-20T10:17:03;9.9;72.2
79187;SHT31;68762;51.980;5.646;2023-12-20T10:19:32;10.0;72.7
79187;SHT31;68762;51.980;5.646;2023-12-20T10:22:04;10.0;72.7
79187;SHT31;68762;51.980;5.646;2023-12-20T10:24:33;10.0;72.6
79187;SHT31;68762;51.980;5.646;2023-12-20T10:27:07;10.0;72.2
79187;SHT31;68762;51.980;5.646;2023-12-20T10:29:37;10.1;71.8
79187;SHT31;68762;51.980;5.646;2023-12-20T10:32:24;10.1;72.2
79187;SHT31;68762;51.980;5.646;2023-12-20T10:34:54;10.1;72.1
79187;SHT31;68762;51.980;5.646;2023-12-20T10:37:25;10.2;71.7
79187;SHT31;68762;51.980;5.646;2023-12-20T10:39:55;10.2;71.7
79187;SHT31;68762;51.980;5.646;2023-12-20T10:42:25;10.2;71.5
79187;SHT31;68762;51.980;5.646;2023-12-20T10:44:55;10.3;71.4
79187;SHT31;68762;51.980;5.646;2023-12-20T10:47:24;10.3;71.3
79187;SHT31;68762;51.980;5.646;2023-12-20T10:49:54;10.3;71.4
79187;SHT31;68762;51.980;5.646;2023-12-20T10:52:23;10.4;71.5
79187;SHT31;68762;51.980;5.646;2023-12-20T10:54:53;10.4;71.5
79187;SHT31;68762;51.980;5.646;2023-12-20T10:57:22;10.4;71.7
79187;SHT31;68762;51.980;5.646;2023-12-20T10:59:54;10.5;70.9
79187;SHT31;68762;51.980;5.646;2023-12-20T11:02:25;10.5;70.7
79187;SHT31;68762;51.980;5.646;2023-12-20T11:04:58;10.5;70.4
79187;SHT31;68762;51.980;5.646;2023-12-20T11:07:35;10.6;71.0
79187;SHT31;68762;51.980;5.646;2023-12-20T11:10:13;10.6;69.9
79187;SHT31;68762;51.980;5.646;2023-12-20T11:12:48;10.7;70.3
79187;SHT31;68762;51.980;5.646;2023-12-20T11:15:21;10.7;70.2
79187;SHT31;68762;51.980;5.646;2023-12-20T11:17:56;10.7;70.1
79187;SHT31;68762;51.980;5.646;2023-12-20T11:20:37;10.8;69.9
79187;SHT31;68762;51.980;5.646;2023-12-20T11:23:07;10.8;69.1
79187;SHT31;68762;51.980;5.646;2023-12-20T11:25:48;10.9;69.2
79187;SHT31;68762;51.980;5.646;2023-12-20T11:28:22;10.9;69.6
79187;SHT31;68762;51.980;5.646;2023-12-20T11:30:52;11.0;69.2
79187;SHT31;68762;51.980;5.646;2023-12-20T11:33:25;11.0;69.4
79187;SHT31;68762;51.980;5.646;2023-12-20T11:35:58;11.0;68.7
79187;SHT31;68762;51.980;5.646;2023-12-20T11:38:27;11.1;67.7
79187;SHT31;68762;51.980;5.646;2023-12-20T11:40:56;11.1;68.3
79187;SHT31;68762;51.980;5.646;2023-12-20T11:43:34;11.1;67.4
79187;SHT31;68762;51.980;5.646;2023-12-20T11:46:05;11.1;67.3
79187;SHT31;68762;51.980;5.646;2023-12-20T11:48:35;11.2;67.4
79187;SHT31;68762;51.980;5.646;2023-12-20T11:51:08;11.2;67.4
79187;SHT31;68762;51.980;5.646;2023-12-20T11:53:37;11.3;66.6
79187;SHT31;68762;51.980;5.646;2023-12-20T11:56:07;11.3;66.8
79187;SHT31;68762;51.980;5.646;2023-12-20T11:58:36;11.4;66.3
79187;SHT31;68762;51.980;5.646;2023-12-20T12:01:05;11.4;66.2
79187;SHT31;68762;51.980;5.646;2023-12-20T12:03:35;11.5;65.7
79187;SHT31;68762;51.980;5.646;2023-12-20T12:06:03;11.5;65.7
79187;SHT31;68762;51.980;5.646;2023-12-20T12:08:35;11.5;66.4
79187;SHT31;68762;51.980;5.646;2023-12-20T12:11:04;11.6;65.6
79187;SHT31;68762;51.980;5.646;2023-12-20T12:13:33;11.6;66.3
79187;SHT31;68762;51.980;5.646;2023-12-20T12:16:02;11.6;65.6
79187;SHT31;68762;51.980;5.646;2023-12-20T12:18:30;11.7;65.7
79187;SHT31;68762;51.980;5.646;2023-12-20T12:21:02;11.7;65.7
79187;SHT31;68762;51.980;5.646;2023-12-20T12:23:31;11.7;65.5
79187;SHT31;68762;51.980;5.646;2023-12-20T12:25:59;11.7;65.8
79187;SHT31;68762;51.980;5.646;2023-12-20T12:28:31;11.8;66.5
79187;SHT31;68762;51.980;5.646;2023-12-20T12:31:02;11.8;65.6
79187;SHT31;68762;51.980;5.646;2023-12-20T12:33:31;11.8;65.9
79187;SHT31;68762;51.980;5.646;2023-12-20T12:36:00;11.8;65.9
79187;SHT31;68762;51.980;5.646;2023-12-20T12:38:30;11.8;66.4
79187;SHT31;68762;51.980;5.646;2023-12-20T12:40:59;11.8;66.3
79187;SHT31;68762;51.980;5.646;2023-12-20T12:43:28;11.7;66.2
79187;SHT31;68762;51.980;5.646;2023-12-20T12:45:57;11.7;66.6
79187;SHT31;68762;51.980;5.646;2023-12-20T12:48:25;11.7;67.0
79187;SHT31;68762;51.980;5.646;2023-12-20T12:50:54;11.7;66.7
79187;SHT31;68762;51.980;5.646;2023-12-20T12:53:25;11.7;67.1
79187;SHT31;68762;51.980;5.646;2023-12-20T12:55:57;11.7;67.1
79187;SHT31;68762;51.980;5.646;2023-12-20T12:58:25;11.7;67.1
79187;SHT31;68762;51.980;5.646;2023-12-20T13:00:54;11.7;66.9
79187;SHT31;68762;51.980;5.646;2023-12-20T13:03:23;11.7;66.4
79187;SHT31;68762;51.980;5.646;2023-12-20T13:05:52;11.7;66.5
79187;SHT31;68762;51.980;5.646;2023-12-20T13:08:22;11.7;65.7
79187;SHT31;68762;51.980;5.646;2023-12-20T13:10:50;11.7;66.2
79187;SHT31;68762;51.980;5.646;2023-12-20T13:13:19;11.8;66.3
79187;SHT31;68762;51.980;5.646;2023-12-20T13:15:48;11.8;66.0
79187;SHT31;68762;51.980;5.646;2023-12-20T13:18:19;11.8;66.3
79187;SHT31;68762;51.980;5.646;2023-12-20T13:20:48;11.8;66.2
79187;SHT31;68762;51.980;5.646;2023-12-20T13:23:16;11.8;66.5
79187;SHT31;68762;51.980;5.646;2023-12-20T13:25:46;11.8;66.2
79187;SHT31;68762;51.980;5.646;2023-12-20T13:28:19;11.8;66.4
79187;SHT31;68762;51.980;5.646;2023-12-20T13:30:47;11.8;66.6
79187;SHT31;68762;51.980;5.646;2023-12-20T13:33:16;11.8;66.1
79187;SHT31;68762;51.980;5.646;2023-12-20T13:35:45;11.8;66.0
79187;SHT31;68762;51.980;5.646;2023-12-20T13:38:14;11.8;65.8
79187;SHT31;68762;51.980;5.646;2023-12-20T13:40:43;11.8;66.0
79187;SHT31;68762;51.980;5.646;2023-12-20T13:43:13;11.8;66.0
79187;SHT31;68762;51.980;5.646;2023-12-20T13:45:47;11.8;66.0
79187;SHT31;68762;51.980;5.646;2023-12-20T13:48:16;11.8;65.4
79187;SHT31;68762;51.980;5.646;2023-12-20T13:50:44;11.8;65.4
79187;SHT31;68762;51.980;5.646;2023-12-20T13:53:13;11.8;65.6
79187;SHT31;68762;51.980;5.646;2023-12-20T13:55:41;11.8;65.4
79187;SHT31;68762;51.980;5.646;2023-12-20T13:58:10;11.8;65.4
79187;SHT31;68762;51.980;5.646;2023-12-20T14:00:40;11.8;65.0
79187;SHT31;68762;51.980;5.646;2023-12-20T14:03:08;11.8;64.9
79187;SHT31;68762;51.980;5.646;2023-12-20T14:05:37;11.8;65.1
79187;SHT31;68762;51.980;5.646;2023-12-20T14:08:06;11.8;64.6
79187;SHT31;68762;51.980;5.646;2023-12-20T14:10:35;11.8;64.8
79187;SHT31;68762;51.980;5.646;2023-12-20T14:13:05;11.8;64.9
79187;SHT31;68762;51.980;5.646;2023-12-20T14:15:33;11.8;64.8
79187;SHT31;68762;51.980;5.646;2023-12-20T14:18:03;11.8;64.7
79187;SHT31;68762;51.980;5.646;2023-12-20T14:20:33;11.8;64.9
79187;SHT31;68762;51.980;5.646;2023-12-20T14:23:03;11.8;64.7
79187;SHT31;68762;51.980;5.646;2023-12-20T14:25:32;11.8;64.9
79187;SHT31;68762;51.980;5.646;2023-12-20T14:28:00;11.8;65.2
79187;SHT31;68762;51.980;5.646;2023-12-20T14:30:29;11.8;64.7
79187;SHT31;68762;51.980;5.646;2023-12-20T14:32:58;11.8;64.9
79187;SHT31;68762;51.980;5.646;2023-12-20T14:35:27;11.8;65.1
79187;SHT31;68762;51.980;5.646;2023-12-20T14:37:58;11.8;65.4
79187;SHT31;68762;51.980;5.646;2023-12-20T14:40:28;11.8;65.2
79187;SHT31;68762;51.980;5.646;2023-12-20T14:42:57;11.8;65.1
79187;SHT31;68762;51.980;5.646;2023-12-20T14:45:25;11.7;65.5
79187;SHT31;68762;51.980;5.646;2023-12-20T14:47:56;11.7;65.4
79187;SHT31;68762;51.980;5.646;2023-12-20T14:50:25;11.7;65.4
79187;SHT31;68762;51.980;5.646;2023-12-20T14:52:53;11.7;65.7
79187;SHT31;68762;51.980;5.646;2023-12-20T14:55:24;11.7;65.8
79187;SHT31;68762;51.980;5.646;2023-12-20T14:57:53;11.7;65.8
79187;SHT31;68762;51.980;5.646;2023-12-20T15:00:22;11.7;65.4
79187;SHT31;68762;51.980;5.646;2023-12-20T15:02:51;11.7;65.6
79187;SHT31;68762;51.980;5.646;2023-12-20T15:05:20;11.7;65.8
79187;SHT31;68762;51.980;5.646;2023-12-20T15:07:49;11.7;65.6
79187;SHT31;68762;51.980;5.646;2023-12-20T15:10:17;11.7;65.9
79187;SHT31;68762;51.980;5.646;2023-12-20T15:12:48;11.7;66.1
79187;SHT31;68762;51.980;5.646;2023-12-20T15:15:18;11.6;66.7
79187;SHT31;68762;51.980;5.646;2023-12-20T15:17:46;11.6;66.4
79187;SHT31;68762;51.980;5.646;2023-12-20T15:20:15;11.6;66.8
79187;SHT31;68762;51.980;5.646;2023-12-20T15:22:44;11.6;66.7
79187;SHT31;68762;51.980;5.646;2023-12-20T15:25:12;11.6;66.9
79187;SHT31;68762;51.980;5.646;2023-12-20T15:27:46;11.6;67.0
79187;SHT31;68762;51.980;5.646;2023-12-20T15:30:19;11.5;67.0
79187;SHT31;68762;51.980;5.646;2023-12-20T15:32:47;11.5;67.3
79187;SHT31;68762;51.980;5.646;2023-12-20T15:35:16;11.5;67.3
79187;SHT31;68762;51.980;5.646;2023-12-20T15:37:45;11.5;67.4
79187;SHT31;68762;51.980;5.646;2023-12-20T15:40:13;11.5;67.9
79187;SHT31;68762;51.980;5.646;2023-12-20T15:42:42;11.4;68.3
79187;SHT31;68762;51.980;5.646;2023-12-20T15:45:12;11.4;68.6
79187;SHT31;68762;51.980;5.646;2023-12-20T15:47:41;11.4;69.0
79187;SHT31;68762;51.980;5.646;2023-12-20T15:50:11;11.3;69.4
79187;SHT31;68762;51.980;5.646;2023-12-20T15:52:40;11.3;69.8
79187;SHT31;68762;51.980;5.646;2023-12-20T15:55:09;11.2;70.1
79187;SHT31;68762;51.980;5.646;2023-12-20T15:57:38;11.2;70.3
79187;SHT31;68762;51.980;5.646;2023-12-20T16:00:07;11.1;70.7
79187;SHT31;68762;51.980;5.646;2023-12-20T16:02:36;11.1;70.9
79187;SHT31;68762;51.980;5.646;2023-12-20T16:05:05;11.1;71.1
79187;SHT31;68762;51.980;5.646;2023-12-20T16:07:34;11.0;71.5
79187;SHT31;68762;51.980;5.646;2023-12-20T16:10:02;11.0;71.6
79187;SHT31;68762;51.980;5.646;2023-12-20T16:12:31;10.9;71.8
79187;SHT31;68762;51.980;5.646;2023-12-20T16:14:59;10.9;72.0
79187;SHT31;68762;51.980;5.646;2023-12-20T16:17:28;10.9;72.1
79187;SHT31;68762;51.980;5.646;2023-12-20T16:19:57;10.9;72.3
79187;SHT31;68762;51.980;5.646;2023-12-20T16:22:26;10.8;72.4
79187;SHT31;68762;51.980;5.646;2023-12-20T16:24:54;10.8;72.6